Time;durP1;ratioP1;P1;durP2;ratioP2;P2;SDS_P1;SDS_P2;PMS_P1;PMS_P2;Temp;Humidity;BMP_temperature;BMP_pressure;BME280_temperature;BME280_humidity;BME280_pressure;Samples;Min_cycle;Max_cycle;Signal;HPM_P1;HPM_P2
2022/09/21 00:01:08;;;;;;;11.87;2.90;;;;;;;-145.69;100.00;72590.53;5079600;28;20198;-76
2022/09/21 00:03:34;;;;;;;6.93;2.20;;;;;;;-145.69;100.00;72592.50;5079663;28;20225;-76
2022/09/21 00:06:05;;;;;;;6.00;3.07;;;;;;;-145.69;100.00;72600.47;5079282;28;20672;-77
2022/09/21 00:08:31;;;;;;;10.20;2.57;;;;;;;-145.69;100.00;72612.41;5079452;28;20203;-76
2022/09/21 00:10:58;;;;;;;6.67;2.47;;;;;;;-145.69;100.00;72620.38;5079300;28;20205;-77
2022/09/21 00:13:27;;;;;;;8.47;2.67;;;;;;;-145.69;100.00;72632.31;5080448;28;20209;-77
2022/09/21 00:15:54;;;;;;;4.10;2.30;;;;;;;-145.69;100.00;72640.28;5079283;28;20257;-77
2022/09/21 00:18:20;;;;;;;6.03;2.60;;;;;;;-145.69;100.00;72648.25;5079370;28;20198;-76
2022/09/21 00:20:47;;;;;;;4.13;2.57;;;;;;;-145.69;100.00;72652.22;5079398;28;20653;-76
2022/09/21 00:23:14;;;;;;;3.80;2.83;;;;;;;-145.69;100.00;72656.22;5079203;28;20210;-76
2022/09/21 00:25:41;;;;;;;4.93;2.80;;;;;;;-145.69;100.00;72664.16;5079354;28;20206;-78
2022/09/21 00:28:07;;;;;;;5.50;2.50;;;;;;;-145.69;100.00;72666.16;5079389;28;20202;-76
2022/09/21 00:30:35;;;;;;;9.87;3.23;;;;;;;-145.69;100.00;72676.09;5079361;28;20221;-78
2022/09/21 00:33:01;;;;;;;8.80;3.23;;;;;;;-145.69;100.00;72686.06;5079389;28;20203;-76
2022/09/21 00:35:28;;;;;;;9.10;3.10;;;;;;;-145.69;100.00;72703.97;5079081;28;20202;-76
2022/09/21 00:37:54;;;;;;;8.23;3.30;;;;;;;-145.69;100.00;72711.94;5079558;28;20244;-76
2022/09/21 00:40:21;;;;;;;4.17;2.70;;;;;;;-145.69;100.00;72741.78;5079154;28;20202;-75
2022/09/21 00:42:47;;;;;;;11.97;3.33;;;;;;;-145.69;100.00;72753.75;5079263;28;20549;-77
2022/09/21 00:45:19;;;;;;;5.10;3.10;;;;;;;-145.69;100.00;72765.69;5079094;28;20561;-76
2022/09/21 00:47:50;;;;;;;9.03;3.27;;;;;;;-145.69;100.00;72779.63;5079108;28;20198;-76
2022/09/21 00:50:20;;;;;;;10.10;3.23;;;;;;;-145.69;100.00;72783.59;5078793;28;20735;-76
2022/09/21 00:52:50;;;;;;;5.77;3.20;;;;;;;-145.69;100.00;72803.50;5078933;28;20202;-76
2022/09/21 00:55:21;;;;;;;5.37;3.20;;;;;;;-145.69;100.00;72827.38;5075926;28;20203;-76
2022/09/21 00:57:49;;;;;;;5.77;2.90;;;;;;;-145.69;100.00;72843.31;5078942;28;20720;-75
2022/09/21 01:00:15;;;;;;;7.10;3.43;;;;;;;-145.69;100.00;72847.28;5078949;28;20203;-76
2022/09/21 01:02:42;;;;;;;9.43;3.40;;;;;;;-145.69;100.00;72845.31;5078883;28;20202;-76
2022/09/21 01:05:11;;;;;;;8.30;3.13;;;;;;;-145.69;100.00;72863.22;5078820;28;20206;-77
2022/09/21 01:07:42;;;;;;;10.47;3.97;;;;;;;-145.69;100.00;72877.16;5078984;28;20225;-77
2022/09/21 01:10:13;;;;;;;8.43;3.37;;;;;;;-145.69;100.00;72867.19;5075019;28;20646;-77
2022/09/21 01:12:51;;;;;;;7.23;3.13;;;;;;;-145.69;100.00;72871.19;5075717;28;20301;-76
2022/09/21 01:15:27;;;;;;;15.77;3.87;;;;;;;-145.69;100.00;72875.16;5075599;28;20221;-76
2022/09/21 01:18:01;;;;;;;14.63;4.00;;;;;;;-145.69;100.00;72875.16;5075800;28;20230;-76
2022/09/21 01:21:00;;;;;;;5.90;3.67;;;;;;;-145.69;100.00;72893.09;5075616;28;20226;-76
2022/09/21 01:23:46;;;;;;;10.77;3.77;;;;;;;-145.69;100.00;72907.00;5062477;28;20199;-76
2022/09/21 01:26:21;;;;;;;5.27;3.23;;;;;;;-145.69;100.00;72922.94;5075638;28;20293;-77
2022/09/21 01:29:11;;;;;;;6.40;3.20;;;;;;;-145.69;100.00;72938.88;5075697;28;20203;-76
2022/09/21 01:31:42;;;;;;;10.20;3.37;;;;;;;-145.69;100.00;72958.78;5075461;28;20210;-77
2022/09/21 01:34:14;;;;;;;10.73;3.60;;;;;;;-145.69;100.00;72946.81;5075271;28;20203;-76
2022/09/21 01:36:42;;;;;;;18.93;4.07;;;;;;;-145.69;100.00;72916.97;5075255;28;20227;-77
2022/09/21 01:39:13;;;;;;;12.40;4.87;;;;;;;-145.69;100.00;72911.00;5075339;28;20561;-77
2022/09/21 01:41:42;;;;;;;8.30;4.50;;;;;;;-145.69;100.00;72914.97;5075237;28;20237;-76
2022/09/21 01:44:14;;;;;;;13.93;4.57;;;;;;;-145.69;100.00;72913.00;5075166;28;20202;-76
2022/09/21 01:46:41;;;;;;;10.47;4.63;;;;;;;-145.69;100.00;72918.97;5074932;28;20202;-76
2022/09/21 01:49:13;;;;;;;13.63;4.40;;;;;;;-145.69;100.00;72934.88;5074960;28;20218;-77
2022/09/21 01:51:43;;;;;;;13.70;4.67;;;;;;;-145.69;100.00;72946.81;5075075;28;20206;-75
2022/09/21 01:54:14;;;;;;;8.00;3.97;;;;;;;-145.69;100.00;72954.78;5074980;28;20592;-76
2022/09/21 01:56:46;;;;;;;8.73;4.30;;;;;;;-145.69;100.00;72968.72;5074831;28;20227;-76
2022/09/21 01:59:20;;;;;;;15.83;4.83;;;;;;;-145.69;100.00;72948.81;5074687;28;20203;-76
2022/09/21 02:01:53;;;;;;;11.60;4.83;;;;;;;-145.69;100.00;72934.88;5074935;28;20201;-76
2022/09/21 02:04:19;;;;;;;13.10;5.10;;;;;;;-145.69;100.00;72934.88;5074866;28;20286;-76
2022/09/21 02:06:48;;;;;;;16.47;4.57;;;;;;;-145.69;100.00;72926.91;5074733;28;20203;-76
2022/09/21 02:09:16;;;;;;;12.17;4.87;;;;;;;-145.69;100.00;72928.91;5074597;28;20213;-77
2022/09/21 02:11:43;;;;;;;9.00;4.33;;;;;;;-145.69;100.00;72936.88;5074329;28;20210;-76
2022/09/21 02:14:13;;;;;;;16.87;5.30;;;;;;;-145.69;100.00;72932.91;5074746;28;20282;-76
2022/09/21 02:16:47;;;;;;;13.37;4.53;;;;;;;-145.69;100.00;72954.78;5074463;28;20226;-77
2022/09/21 02:19:21;;;;;;;12.67;4.63;;;;;;;-145.69;100.00;72968.72;5074313;28;20438;-76
2022/09/21 02:21:57;;;;;;;11.20;4.57;;;;;;;-145.69;100.00;72982.66;5073387;28;20194;-76
2022/09/21 02:24:32;;;;;;;11.30;3.80;;;;;;;-145.69;100.00;73006.53;5074300;28;20202;-76
2022/09/21 02:27:04;;;;;;;9.97;4.43;;;;;;;-145.69;100.00;73012.53;5074388;28;20202;-76
2022/09/21 02:29:41;;;;;;;15.50;4.93;;;;;;;-145.69;100.00;73002.56;5074338;28;20203;-75
2022/09/21 02:32:12;;;;;;;17.80;4.63;;;;;;;-145.69;100.00;73014.50;5074118;28;20730;-76
2022/09/21 02:34:45;;;;;;;15.67;4.97;;;;;;;-145.69;100.00;73028.44;5074174;28;20214;-76
2022/09/21 02:37:20;;;;;;;11.87;4.70;;;;;;;-145.69;100.00;73042.38;5074256;28;20254;-76
2022/09/21 02:39:55;;;;;;;10.50;4.10;;;;;;;-145.69;100.00;73048.34;5074142;28;20202;-76
2022/09/21 02:42:26;;;;;;;11.97;4.40;;;;;;;-145.69;100.00;73066.25;5073144;28;20198;-75
2022/09/21 02:44:59;;;;;;;8.67;3.73;;;;;;;-145.69;100.00;73082.19;5073717;28;20222;-75
2022/09/21 02:47:33;;;;;;;12.20;4.40;;;;;;;-145.69;100.00;73090.16;5071572;28;20195;-76
2022/09/21 02:50:05;;;;;;;8.57;3.53;;;;;;;-145.69;100.00;73098.13;5072839;28;20700;-76
2022/09/21 02:52:34;;;;;;;11.93;4.67;;;;;;;-145.69;100.00;73078.22;5073777;28;20569;-76
2022/09/21 02:55:02;;;;;;;16.20;4.50;;;;;;;-145.69;100.00;73054.31;5073537;28;20202;-76
2022/09/21 02:57:29;;;;;;;20.37;5.77;;;;;;;-145.69;100.00;73042.38;5073541;28;20241;-75
2022/09/21 02:59:55;;;;;;;19.47;5.50;;;;;;;-145.69;100.00;73040.38;5059231;28;20199;-76
2022/09/21 03:02:22;;;;;;;13.97;4.87;;;;;;;-145.69;100.00;73046.34;5053633;28;20223;-76
2022/09/21 03:04:50;;;;;;;7.87;4.27;;;;;;;-145.69;100.00;73072.25;5053674;28;20211;-76
2022/09/21 03:07:17;;;;;;;7.17;3.97;;;;;;;-145.69;100.00;73082.19;5053514;28;20198;-76
2022/09/21 03:09:44;;;;;;;12.40;4.20;;;;;;;-145.69;100.00;73090.16;5053419;28;20206;-76
2022/09/21 03:12:10;;;;;;;15.33;4.57;;;;;;;-145.69;100.00;73102.09;5053323;28;20215;-75
2022/09/21 03:14:37;;;;;;;8.57;4.57;;;;;;;-145.69;100.00;73106.09;5053243;28;20226;-75
2022/09/21 03:17:04;;;;;;;15.33;4.53;;;;;;;-145.69;100.00;73082.19;5053113;28;20778;-75
2022/09/21 03:19:30;;;;;;;17.17;5.37;;;;;;;-145.69;100.00;73070.25;5053247;28;20199;-76
2022/09/21 03:21:58;;;;;;;21.40;6.07;;;;;;;-145.69;100.00;73050.34;5053321;28;20203;-76
2022/09/21 03:27:09;;;;;;;14.43;4.57;;;;;;;-145.69;100.00;73078.22;5053413;28;20289;-76
2022/09/21 03:29:35;;;;;;;11.87;5.07;;;;;;;-145.69;100.00;73078.22;5057777;28;20255;-76
2022/09/21 03:32:03;;;;;;;12.80;5.70;;;;;;;-145.69;100.00;73078.22;5072793;28;20206;-76
2022/09/21 03:34:33;;;;;;;12.27;4.67;;;;;;;-145.69;100.00;73090.16;5073165;28;20210;-76
2022/09/21 03:37:01;;;;;;;15.77;5.03;;;;;;;-145.69;100.00;73094.13;5072887;28;20313;-76
2022/09/21 03:39:27;;;;;;;18.80;4.83;;;;;;;-145.69;100.00;73106.09;5073232;28;20210;-76
2022/09/21 03:41:55;;;;;;;14.63;5.53;;;;;;;-145.69;100.00;73114.03;5073046;28;20206;-76
2022/09/21 03:44:22;;;;;;;12.73;4.77;;;;;;;-145.69;100.00;73112.06;5073203;28;20209;-76
2022/09/21 03:46:49;;;;;;;15.93;5.07;;;;;;;-145.69;100.00;73116.03;5073112;28;20210;-78
2022/09/21 03:49:15;;;;;;;13.07;5.03;;;;;;;-145.69;100.00;73102.09;5072697;28;20222;-76
2022/09/21 03:51:42;;;;;;;8.50;4.63;;;;;;;-145.69;100.00;73131.97;5072906;28;20198;-76
2022/09/21 03:54:10;;;;;;;14.93;4.53;;;;;;;-145.69;100.00;73155.84;5072997;28;20294;-76
2022/09/21 03:56:37;;;;;;;15.40;4.30;;;;;;;-145.69;100.00;73173.75;5072982;28;20198;-76
2022/09/21 03:59:04;;;;;;;9.30;3.73;;;;;;;-145.69;100.00;73181.72;5072905;28;20222;-76
2022/09/21 04:01:31;;;;;;;8.17;3.93;;;;;;;-145.69;100.00;73195.66;5072940;28;20293;-76
2022/09/21 04:03:58;;;;;;;12.77;4.77;;;;;;;-145.69;100.00;73203.63;5072837;28;20202;-77
2022/09/21 04:06:24;;;;;;;12.30;3.77;;;;;;;-145.69;100.00;73213.56;5072673;28;20244;-77
2022/09/21 04:08:52;;;;;;;14.40;4.10;;;;;;;-145.69;100.00;73207.59;5072950;28;20234;-77
2022/09/21 04:11:21;;;;;;;11.13;4.20;;;;;;;-145.69;100.00;73209.59;5072687;28;20467;-76
2022/09/21 04:13:49;;;;;;;9.77;4.40;;;;;;;-145.69;100.00;73215.56;5072770;28;20195;-75
2022/09/21 04:16:16;;;;;;;10.57;4.17;;;;;;;-145.69;100.00;73213.56;5072701;28;20210;-75
2022/09/21 04:18:43;;;;;;;7.00;3.40;;;;;;;-145.69;100.00;73215.56;5072468;28;20226;-75
2022/09/21 04:21:09;;;;;;;12.03;3.73;;;;;;;-145.69;100.00;73205.63;5072778;28;20203;-76
2022/09/21 04:23:36;;;;;;;10.50;4.70;;;;;;;-145.69;100.00;73215.56;5072371;28;20210;-77
2022/09/21 04:26:02;;;;;;;10.40;4.20;;;;;;;-145.69;100.00;73227.50;5072893;28;20196;-78
2022/09/21 04:28:31;;;;;;;12.13;4.17;;;;;;;-145.69;100.00;73223.53;5072457;28;20213;-76
2022/09/21 04:30:57;;;;;;;14.30;4.53;;;;;;;-145.69;100.00;73227.50;5072517;28;20210;-77
2022/09/21 04:33:24;;;;;;;16.20;5.27;;;;;;;-145.69;100.00;73199.66;5072616;28;20210;-76
2022/09/21 04:35:55;;;;;;;13.80;4.97;;;;;;;-145.69;100.00;73189.69;5072782;28;20210;-76
2022/09/21 04:38:21;;;;;;;12.73;5.00;;;;;;;-145.69;100.00;73181.72;5072392;28;20248;-77
2022/09/21 04:40:55;;;;;;;11.90;4.37;;;;;;;-145.69;100.00;73193.66;5072640;28;20210;-77
2022/09/21 04:43:22;;;;;;;10.97;4.73;;;;;;;-145.69;100.00;73185.72;5072561;28;20206;-77
2022/09/21 04:45:50;;;;;;;16.07;4.77;;;;;;;-145.69;100.00;73173.75;5076127;28;20762;-77
2022/09/21 04:48:17;;;;;;;15.10;5.03;;;;;;;-145.69;100.00;73181.72;5076302;28;20201;-77
2022/09/21 04:50:44;;;;;;;12.87;5.33;;;;;;;-145.69;100.00;73193.66;5075922;28;20585;-77
2022/09/21 04:53:10;;;;;;;11.37;4.33;;;;;;;-145.69;100.00;73209.59;5075931;28;20206;-76
2022/09/21 04:55:36;;;;;;;13.03;4.53;;;;;;;-145.69;100.00;73227.50;5064854;28;20200;-76
2022/09/21 04:58:03;;;;;;;11.87;4.20;;;;;;;-145.69;100.00;73231.50;5055916;28;20227;-76
2022/09/21 05:00:30;;;;;;;11.80;4.43;;;;;;;-145.69;100.00;73221.53;5055792;28;20203;-77
2022/09/21 05:02:58;;;;;;;16.00;4.20;;;;;;;-145.69;100.00;73213.56;5056003;28;20199;-77
2022/09/21 05:05:25;;;;;;;13.60;4.67;;;;;;;-145.69;100.00;73217.56;5056051;28;20561;-76
2022/09/21 05:07:51;;;;;;;9.60;4.63;;;;;;;-145.69;100.00;73221.53;5055910;28;20195;-77
2022/09/21 05:10:16;;;;;;;7.70;4.10;;;;;;;-145.69;100.00;73219.56;5055797;28;20203;-77
2022/09/21 05:12:43;;;;;;;12.63;4.27;;;;;;;-145.69;100.00;73221.53;5055571;28;20206;-77
2022/09/21 05:15:11;;;;;;;12.23;4.43;;;;;;;-145.69;100.00;73215.56;5055754;28;20207;-77
2022/09/21 05:17:37;;;;;;;12.23;4.90;;;;;;;-145.69;100.00;73199.66;5055404;28;20694;-76
2022/09/21 05:20:06;;;;;;;9.47;4.43;;;;;;;-145.69;100.00;73193.66;5055627;28;20203;-77
2022/09/21 05:22:33;;;;;;;12.00;4.40;;;;;;;-145.69;100.00;73209.59;5055436;28;20196;-77
2022/09/21 05:24:59;;;;;;;12.57;4.60;;;;;;;-145.69;100.00;73201.63;5055440;28;20211;-77
2022/09/21 05:27:26;;;;;;;14.23;5.00;;;;;;;-145.69;100.00;73201.63;5055313;28;20668;-77
2022/09/21 05:29:53;;;;;;;13.20;4.53;;;;;;;-145.69;100.00;73193.66;5055363;28;20550;-77
2022/09/21 05:32:24;;;;;;;20.13;5.70;;;;;;;-145.69;100.00;73193.66;5055309;28;20211;-77
2022/09/21 05:35:01;;;;;;;15.07;5.50;;;;;;;-145.69;100.00;73209.59;5055430;28;20601;-76
2022/09/21 05:37:52;;;;;;;11.93;4.60;;;;;;;-145.69;100.00;73201.63;5055150;28;20227;-77
2022/09/21 05:40:19;;;;;;;15.67;4.10;;;;;;;-145.69;100.00;73201.63;5055358;28;20206;-77
2022/09/21 05:42:46;;;;;;;18.13;5.80;;;;;;;-145.69;100.00;73177.75;5055312;28;20199;-76
2022/09/21 05:45:18;;;;;;;14.40;5.57;;;;;;;-145.69;100.00;73169.78;5055099;28;20199;-77
2022/09/21 05:47:53;;;;;;;13.40;4.73;;;;;;;-145.69;100.00;73169.78;5061452;28;20294;-76
2022/09/21 05:50:32;;;;;;;13.17;5.33;;;;;;;-145.69;100.00;73169.78;5074897;28;20651;-76
2022/09/21 05:53:11;;;;;;;16.43;5.17;;;;;;;-145.69;100.00;73173.75;5075226;28;20214;-77
2022/09/21 05:55:48;;;;;;;15.30;4.67;;;;;;;-145.69;100.00;73153.84;5074660;28;20207;-77
2022/09/21 05:58:24;;;;;;;14.53;5.40;;;;;;;-145.69;100.00;73147.88;5074857;28;20241;-77
2022/09/21 06:01:00;;;;;;;12.27;5.03;;;;;;;-145.69;100.00;73124.00;5074810;28;20199;-78
2022/09/21 06:03:29;;;;;;;18.10;5.13;;;;;;;-145.69;100.00;73110.06;5075136;28;20202;-78
2022/09/21 06:05:55;;;;;;;13.97;4.67;;;;;;;-145.69;100.00;73090.16;5075086;28;20653;-78
2022/09/21 06:08:23;;;;;;;17.57;5.63;;;;;;;-145.69;100.00;73082.19;5074868;28;20202;-77
2022/09/21 06:10:51;;;;;;;16.90;5.23;;;;;;;-145.69;100.00;73072.25;5074673;28;20203;-76
2022/09/21 06:13:17;;;;;;;12.67;4.00;;;;;;;-145.69;100.00;73060.28;5074488;28;20203;-77
2022/09/21 06:15:44;;;;;;;11.30;4.37;;;;;;;-145.69;100.00;73062.28;5073747;28;20202;-77
2022/09/21 06:18:11;;;;;;;16.93;4.70;;;;;;;-145.69;100.00;73042.38;5072154;28;20242;-78
2022/09/21 06:20:37;;;;;;;12.70;4.30;;;;;;;-145.69;100.00;73038.41;5073514;28;20245;-77
2022/09/21 06:23:05;;;;;;;11.33;4.80;;;;;;;-145.69;100.00;73022.47;5074423;28;20206;-77
2022/09/21 06:25:33;;;;;;;15.73;4.93;;;;;;;-145.69;100.00;73010.53;5074215;28;20194;-76
2022/09/21 06:28:03;;;;;;;17.33;4.70;;;;;;;-145.69;100.00;72996.59;5074085;28;20202;-77
2022/09/21 06:30:29;;;;;;;11.87;4.90;;;;;;;-145.69;100.00;72986.63;5074078;28;20234;-77
2022/09/21 06:32:59;;;;;;;9.87;4.73;;;;;;;-145.69;100.00;72974.69;5072131;28;20195;-78
2022/09/21 06:35:26;;;;;;;15.17;4.70;;;;;;;-145.69;100.00;72966.72;5072091;28;20230;-77
2022/09/21 06:37:52;;;;;;;24.00;5.53;;;;;;;-145.69;100.00;72920.94;5071807;28;20708;-77
2022/09/21 06:40:19;;;;;;;13.53;5.40;;;;;;;-145.69;100.00;72903.03;5072356;28;20194;-78
2022/09/21 06:42:46;;;;;;;17.63;5.17;;;;;;;-145.69;100.00;72893.09;5071769;28;20198;-77
2022/09/21 06:45:13;;;;;;;16.23;4.63;;;;;;;-145.69;100.00;72851.28;5072436;28;20203;-78
2022/09/21 06:47:46;;;;;;;14.60;5.13;;;;;;;-145.69;100.00;72821.41;5074613;28;20195;-79
2022/09/21 06:50:12;;;;;;;8.13;4.40;;;;;;;-145.69;100.00;72795.53;5073724;28;20235;-77
2022/09/21 06:52:40;;;;;;;17.43;4.93;;;;;;;-145.69;100.00;72783.59;5058776;28;20203;-78
2022/09/21 06:55:08;;;;;;;10.87;3.93;;;;;;;-145.69;100.00;72773.66;5053594;28;20654;-78
2022/09/21 06:57:35;;;;;;;9.83;3.80;;;;;;;-145.69;100.00;72751.75;5053734;28;20237;-78
2022/09/21 07:00:04;;;;;;;7.00;3.67;;;;;;;-145.69;100.00;72739.81;5053755;28;20195;-78
2022/09/21 07:02:30;;;;;;;6.03;2.87;;;;;;;-145.69;100.00;72723.88;5053660;28;20214;-78
2022/09/21 07:04:57;;;;;;;6.13;3.00;;;;;;;-145.69;100.00;72692.03;5053693;28;20199;-77
2022/09/21 07:07:24;;;;;;;9.30;2.83;;;;;;;-145.69;100.00;72666.16;5052677;28;20211;-78
2022/09/21 07:09:50;;;;;;;8.53;2.33;;;;;;;-145.69;100.00;72644.25;5053441;28;20673;-78
2022/09/21 07:12:17;;;;;;;8.80;1.90;;;;;;;-145.69;100.00;72628.34;5053490;28;20195;-77
2022/09/21 07:14:44;;;;;;;2.50;1.63;;;;;;;-145.69;100.00;72598.47;5053472;28;20293;-80
2022/09/21 07:17:13;;;;;;;8.27;2.20;;;;;;;-145.69;100.00;72590.53;5053442;28;20231;-78
2022/09/21 07:19:40;;;;;;;4.67;1.47;;;;;;;-145.69;100.00;72576.59;5053424;28;20319;-77
2022/09/21 07:22:07;;;;;;;4.40;1.43;;;;;;;-145.69;100.00;72552.69;5053154;28;20199;-78
2022/09/21 07:24:34;;;;;;;16.70;2.10;;;;;;;-145.69;100.00;72544.75;5053755;28;20199;-79
2022/09/21 07:27:00;;;;;;;5.50;1.50;;;;;;;-145.69;100.00;72544.75;5053388;28;20206;-77
2022/09/21 07:29:27;;;;;;;3.70;1.50;;;;;;;-145.69;100.00;72532.78;5053207;28;20207;-78
2022/09/21 07:31:53;;;;;;;5.03;1.60;;;;;;;-145.69;100.00;72508.91;5053165;28;20202;-79
2022/09/21 07:34:21;;;;;;;2.07;1.20;;;;;;;-145.69;100.00;72502.94;5053071;28;20203;-80
2022/09/21 07:36:47;;;;;;;5.53;1.10;;;;;;;-145.69;100.00;72487.00;5052916;28;20203;-78
2022/09/21 07:39:14;;;;;;;5.37;1.30;;;;;;;-145.69;100.00;72479.06;5053086;28;20223;-78
2022/09/21 07:41:41;;;;;;;3.50;1.10;;;;;;;-145.69;100.00;72473.09;5053090;28;20208;-78
2022/09/21 07:44:07;;;;;;;2.93;1.00;;;;;;;-145.69;100.00;72457.16;5052962;28;20253;-77
2022/09/21 07:46:34;;;;;;;2.27;1.07;;;;;;;-145.69;100.00;72441.25;5052348;28;20645;-78
2022/09/21 07:49:03;;;;;;;1.87;0.97;;;;;;;-145.69;100.00;72421.34;5052586;28;20566;-77
2022/09/21 07:51:31;;;;;;;2.17;0.97;;;;;;;-145.69;100.00;72423.31;5053068;28;20304;-76
2022/09/21 07:53:57;;;;;;;4.20;1.10;;;;;;;-145.69;100.00;72403.41;5051523;28;20202;-79
2022/09/21 07:56:24;;;;;;;4.13;0.90;;;;;;;-145.69;100.00;72393.47;5052350;28;20206;-77
2022/09/21 07:59:05;;;;;;;6.90;1.10;;;;;;;-145.69;100.00;72377.53;5051582;28;20242;-77
2022/09/21 08:01:33;;;;;;;4.20;1.10;;;;;;;-145.69;100.00;72361.63;5051162;28;20241;-78
2022/09/21 08:04:00;;;;;;;5.07;1.63;;;;;;;-145.69;100.00;72357.66;5051466;28;20203;-78
2022/09/21 08:06:29;;;;;;;2.80;0.80;;;;;;;-145.69;100.00;72345.69;5051894;28;20570;-76
2022/09/21 08:08:56;;;;;;;2.30;0.90;;;;;;;-145.69;100.00;72337.75;5052037;28;20227;-79
2022/09/21 08:11:24;;;;;;;2.90;0.90;;;;;;;-145.69;100.00;72321.81;5052252;28;20212;-75
2022/09/21 08:13:53;;;;;;;3.93;0.97;;;;;;;-145.69;100.00;72303.91;5052726;28;20294;-79
2022/09/21 08:16:20;;;;;;;4.20;0.93;;;;;;;-145.69;100.00;72303.91;5052302;28;20200;-76
2022/09/21 08:18:46;;;;;;;3.37;1.00;;;;;;;-145.69;100.00;72297.94;5054431;28;20227;-78
2022/09/21 08:21:13;;;;;;;2.63;0.97;;;;;;;-145.69;100.00;72278.03;5055469;28;20199;-81
2022/09/21 08:23:41;;;;;;;6.00;0.80;;;;;;;-145.69;100.00;72280.03;5054298;28;20204;-78
2022/09/21 08:26:15;;;;;;;2.83;1.27;;;;;;;-145.69;100.00;72264.09;5056584;28;20206;-78
2022/09/21 08:28:43;;;;;;;3.10;1.13;;;;;;;-145.69;100.00;72262.09;5055926;28;20686;-77
2022/09/21 08:31:10;;;;;;;3.90;0.70;;;;;;;-145.69;99.02;72256.13;5056473;28;20210;-77
2022/09/21 08:33:36;;;;;;;5.80;1.00;;;;;;;-145.69;98.07;72242.22;5055347;28;20230;-76
2022/09/21 08:36:04;;;;;;;2.93;0.90;;;;;;;-145.69;100.00;72222.31;5056297;28;20210;-78
2022/09/21 08:38:33;;;;;;;3.10;0.70;;;;;;;-145.69;99.96;72218.31;5055762;28;20238;-76
2022/09/21 08:41:01;;;;;;;3.30;0.90;;;;;;;-145.69;93.25;72234.25;5055995;28;20551;-78
2022/09/21 08:43:34;;;;;;;3.13;1.13;;;;;;;-145.69;93.78;72244.19;5055605;28;20208;-76
2022/09/21 08:46:05;;;;;;;2.30;0.90;;;;;;;-145.69;94.13;72236.22;5056392;28;20265;-77
2022/09/21 08:48:39;;;;;;;6.07;1.13;;;;;;;-145.69;90.20;72222.31;5058654;28;20203;-77
2022/09/21 08:51:09;;;;;;;1.07;0.60;;;;;;;-145.69;95.13;72220.31;5055597;28;20606;-77
2022/09/21 08:53:38;;;;;;;1.43;0.80;;;;;;;-145.69;91.12;72202.41;5055898;28;20287;-78
2022/09/21 08:56:05;;;;;;;1.60;0.60;;;;;;;-145.69;89.27;72174.53;5056443;28;20202;-77
2022/09/21 08:58:33;;;;;;;1.37;0.80;;;;;;;-145.69;94.29;72146.69;5055595;28;20318;-78
2022/09/21 09:01:14;;;;;;;4.40;0.77;;;;;;;-145.69;89.70;72130.75;5056003;28;20672;-78
2022/09/21 09:03:59;;;;;;;2.17;0.70;;;;;;;-145.69;87.26;72122.78;5055972;28;20207;-78
2022/09/21 09:06:39;;;;;;;6.10;1.20;;;;;;;-145.69;87.98;72118.81;5055749;28;20203;-77
2022/09/21 09:09:20;;;;;;;2.47;0.87;;;;;;;-145.69;84.75;72110.84;5055901;28;20535;-78
2022/09/21 09:12:08;;;;;;;2.13;0.80;;;;;;;-145.69;84.03;72106.88;5055928;28;20218;-77
2022/09/21 09:14:57;;;;;;;3.70;0.90;;;;;;;-145.69;89.48;72092.94;5055578;28;20204;-77
2022/09/21 09:17:36;;;;;;;6.53;1.00;;;;;;;-145.69;83.54;72086.97;5055813;28;20199;-77
2022/09/21 09:20:07;;;;;;;9.05;1.08;;;;;;;-145.69;93.05;72071.03;5055525;28;20226;-81
2022/09/21 09:22:40;;;;;;;0.77;0.52;;;;;;;-145.69;83.05;72092.94;5055561;28;20265;-77
2022/09/21 09:25:17;;;;;;;2.72;0.70;;;;;;;-145.69;83.34;72065.06;5055295;28;20455;-79
2022/09/21 09:27:46;;;;;;;2.63;0.70;;;;;;;-145.69;81.20;72055.13;5055567;28;20203;-80
2022/09/21 09:30:17;;;;;;;2.22;0.60;;;;;;;-145.69;83.16;72055.13;5054858;28;20214;-78
2022/09/21 09:32:52;;;;;;;2.00;0.60;;;;;;;-145.69;82.94;72043.19;5055259;28;20207;-80
2022/09/21 09:35:25;;;;;;;1.85;0.77;;;;;;;-145.69;83.05;72043.19;5055301;28;20235;-78
2022/09/21 09:37:56;;;;;;;1.42;0.60;;;;;;;-145.69;81.83;72011.34;5055419;28;20204;-78
2022/09/21 09:40:39;;;;;;;2.28;0.80;;;;;;;-145.69;80.79;71997.41;5055468;28;20233;-78
2022/09/21 09:43:13;;;;;;;2.33;0.63;;;;;;;-145.69;81.33;71989.44;5055148;28;20203;-79
2022/09/21 09:45:53;;;;;;;2.38;0.60;;;;;;;-145.69;81.76;71955.63;5055197;28;20199;-77
2022/09/21 09:48:38;;;;;;;3.08;0.90;;;;;;;-145.69;78.95;71957.59;5066547;28;20195;-78
2022/09/21 09:51:05;;;;;;;1.52;0.60;;;;;;;-145.69;78.40;71935.72;5075038;28;20253;-78
2022/09/21 09:53:32;;;;;;;2.90;0.88;;;;;;;-145.69;76.32;71905.88;5075131;28;20202;-77
2022/09/21 09:56:00;;;;;;;2.28;0.70;;;;;;;-145.69;71.95;71901.88;5075017;28;20256;-78
2022/09/21 09:58:37;;;;;;;1.00;0.68;;;;;;;-145.69;73.01;71864.06;5074616;28;20289;-76
2022/09/21 10:01:06;;;;;;;2.30;0.60;;;;;;;-145.69;73.55;71883.97;5074521;28;20244;-77
2022/09/21 10:03:32;;;;;;;3.63;0.65;;;;;;;-145.69;74.77;71901.88;5076035;28;20277;-77
2022/09/21 10:05:59;;;;;;;2.50;0.70;;;;;;;-145.69;73.49;71927.75;5074787;28;20206;-76
2022/09/21 10:08:38;;;;;;;3.50;0.90;;;;;;;-145.69;74.86;71925.75;5074698;28;20211;-76
2022/09/21 10:11:05;;;;;;;1.25;0.70;;;;;;;-145.69;75.33;71919.78;5074606;28;20202;-77
2022/09/21 10:13:34;;;;;;;1.65;0.60;;;;;;;-145.69;73.97;71943.69;5074297;28;20209;-76
2022/09/21 10:16:04;;;;;;;2.05;0.60;;;;;;;-145.69;72.47;71979.50;5074600;28;20199;-78
2022/09/21 10:18:38;;;;;;;0.82;0.50;;;;;;;-145.69;74.36;71963.56;5074067;28;20195;-76
2022/09/21 10:21:07;;;;;;;1.77;0.60;;;;;;;-145.69;77.36;71965.56;5074583;28;20753;-76
2022/09/21 10:23:36;;;;;;;0.70;0.70;;;;;;;-145.69;74.87;71961.59;5074292;28;20195;-76
2022/09/21 10:26:07;;;;;;;3.45;0.50;;;;;;;-145.69;75.05;71933.72;5074478;28;20203;-77
2022/09/21 10:28:34;;;;;;;2.33;0.90;;;;;;;-145.69;75.05;71911.84;5074249;28;20298;-76
2022/09/21 10:31:18;;;;;;;4.88;0.70;;;;;;;-145.69;75.70;71931.72;5074345;28;20238;-78
2022/09/21 10:33:54;;;;;;;2.25;0.63;;;;;;;-145.69;78.29;71959.59;5074040;28;20238;-78
2022/09/21 10:36:32;;;;;;;1.73;0.57;;;;;;;-145.69;75.76;71987.47;5074043;28;20240;-78
2022/09/21 10:39:22;;;;;;;1.83;0.60;;;;;;;-145.69;81.34;71931.72;5074081;28;20225;-76
2022/09/21 10:41:51;;;;;;;2.17;0.60;;;;;;;-145.69;75.54;71901.88;5073059;28;20199;-75
2022/09/21 10:44:19;;;;;;;1.10;0.55;;;;;;;-145.69;71.84;71850.13;5073810;28;20210;-76
2022/09/21 10:46:48;;;;;;;4.78;0.63;;;;;;;-145.69;68.20;71804.38;5074027;28;20206;-76
2022/09/21 10:49:22;;;;;;;2.33;0.75;;;;;;;-145.69;67.27;71792.44;5073749;28;20237;-79
2022/09/21 10:51:51;;;;;;;1.52;0.80;;;;;;;-145.69;72.27;71754.63;5074160;28;20209;-79
2022/09/21 10:54:23;;;;;;;1.27;0.57;;;;;;;-145.69;63.37;71750.63;5073659;28;20202;-80
2022/09/21 10:56:53;;;;;;;3.45;0.75;;;;;;;-145.69;71.37;71692.94;5065878;28;20659;-77
2022/09/21 10:59:23;;;;;;;1.38;0.50;;;;;;;-145.69;68.97;71724.75;5053836;28;20223;-78
2022/09/21 11:01:51;;;;;;;0.80;0.52;;;;;;;-145.69;67.78;71712.81;5055960;28;20261;-78
2022/09/21 11:04:28;;;;;;;1.38;0.50;;;;;;;-145.69;66.33;71708.84;5063782;28;20210;-80
2022/09/21 11:07:02;;;;;;;2.45;0.70;;;;;;;-145.69;69.17;71673.03;5053815;28;20558;-78
2022/09/21 11:09:35;;;;;;;2.90;0.80;;;;;;;-145.69;66.53;71712.81;5052785;28;20225;-75
2022/09/21 11:12:10;;;;;;;1.60;0.55;;;;;;;-145.69;65.26;71716.81;5053230;28;20211;-76
2022/09/21 11:14:45;;;;;;;1.33;0.75;;;;;;;-145.69;67.61;71682.97;5073121;28;20195;-76
2022/09/21 11:17:19;;;;;;;3.13;0.68;;;;;;;-145.69;61.81;71665.06;5073379;28;20198;-77
2022/09/21 11:19:52;;;;;;;0.85;0.60;;;;;;;-145.69;62.09;71679.00;5073335;28;20235;-77
2022/09/21 11:22:26;;;;;;;1.73;0.88;;;;;;;-145.69;62.34;71680.97;5073074;28;20260;-77